Terminal Aerodrome Forecast
Issued by NWS Cleveland, OH

Home | Current Version | Previous Version | Graphics & Text | Print | Product List | Glossary On
Versions: 1 2 3 4 5 6 7 8 9 10 11 12 13 14 15 16 17 18 19 20 21 22 23 24 25 26 27 28 29 30 31 32 33 34 35 36 37 38
000
FTUS41 KCLE 201700
TAFMFD
TAF
KMFD 201733Z 2018/2118 21012G20KT P6SM OVC010
      TEMPO 2019/2022 5SM -SHRA OVC035
     FM202200 25010KT 6SM -SHRA OVC035
     FM210200 26008KT P6SM VCSH OVC025
     FM210700 29008KT 5SM -DZ BR OVC008
     FM211300 31012KT P6SM OVC015=

USA.gov is the U.S. government's official web portal to all federal, state and local government web resources and services.